sensor_id;sensor_type;location;lat;lon;timestamp;temperature;humidity
10312;DHT22;5201;48.776;9.128;2023-11-21T00:00:16;9.10;99.90
10312;DHT22;5201;48.776;9.128;2023-11-21T00:02:43;9.00;99.90
10312;DHT22;5201;48.776;9.128;2023-11-21T00:05:10;8.90;99.90
10312;DHT22;5201;48.776;9.128;2023-11-21T00:07:38;9.40;99.90
10312;DHT22;5201;48.776;9.128;2023-11-21T00:10:04;9.10;99.90
10312;DHT22;5201;48.776;9.128;2023-11-21T00:12:37;9.00;99.90
10312;DHT22;5201;48.776;9.128;2023-11-21T00:15:03;8.80;99.90
10312;DHT22;5201;48.776;9.128;2023-11-21T00:17:34;8.80;99.90
10312;DHT22;5201;48.776;9.128;2023-11-21T00:20:00;8.80;99.90
10312;DHT22;5201;48.776;9.128;2023-11-21T00:22:25;8.70;99.90
10312;DHT22;5201;48.776;9.128;2023-11-21T00:24:51;8.80;99.90
10312;DHT22;5201;48.776;9.128;2023-11-21T00:27:17;8.90;99.90
10312;DHT22;5201;48.776;9.128;2023-11-21T00:29:42;9.00;99.90
10312;DHT22;5201;48.776;9.128;2023-11-21T00:32:08;9.10;99.90
10312;DHT22;5201;48.776;9.128;2023-11-21T00:34:34;9.10;99.90
10312;DHT22;5201;48.776;9.128;2023-11-21T00:37:00;8.80;99.90
10312;DHT22;5201;48.776;9.128;2023-11-21T00:39:25;9.30;99.90
10312;DHT22;5201;48.776;9.128;2023-11-21T00:41:52;8.90;99.90
10312;DHT22;5201;48.776;9.128;2023-11-21T00:44:17;8.80;99.90
10312;DHT22;5201;48.776;9.128;2023-11-21T00:46:43;8.70;99.90
10312;DHT22;5201;48.776;9.128;2023-11-21T00:49:08;8.50;99.90
10312;DHT22;5201;48.776;9.128;2023-11-21T00:51:34;8.50;99.90
10312;DHT22;5201;48.776;9.128;2023-11-21T00:54:00;8.60;99.90
10312;DHT22;5201;48.776;9.128;2023-11-21T00:56:25;8.80;99.90
10312;DHT22;5201;48.776;9.128;2023-11-21T00:58:51;8.90;99.90
10312;DHT22;5201;48.776;9.128;2023-11-21T01:01:18;8.80;99.90
10312;DHT22;5201;48.776;9.128;2023-11-21T01:03:46;8.80;99.90
10312;DHT22;5201;48.776;9.128;2023-11-21T01:06:12;8.90;99.90
10312;DHT22;5201;48.776;9.128;2023-11-21T01:08:37;9.10;99.90
10312;DHT22;5201;48.776;9.128;2023-11-21T01:11:03;9.20;99.90
10312;DHT22;5201;48.776;9.128;2023-11-21T01:13:30;9.20;99.90
10312;DHT22;5201;48.776;9.128;2023-11-21T01:15:56;9.70;99.90
10312;DHT22;5201;48.776;9.128;2023-11-21T01:18:22;9.30;99.90
10312;DHT22;5201;48.776;9.128;2023-11-21T01:20:47;9.40;99.90
10312;DHT22;5201;48.776;9.128;2023-11-21T01:23:13;8.80;99.90
10312;DHT22;5201;48.776;9.128;2023-11-21T01:25:39;9.60;99.90
10312;DHT22;5201;48.776;9.128;2023-11-21T01:28:04;9.50;99.90
10312;DHT22;5201;48.776;9.128;2023-11-21T01:30:30;9.50;99.90
10312;DHT22;5201;48.776;9.128;2023-11-21T01:32:58;10.10;99.90
10312;DHT22;5201;48.776;9.128;2023-11-21T01:35:23;9.40;99.90
10312;DHT22;5201;48.776;9.128;2023-11-21T01:37:49;9.80;99.90
10312;DHT22;5201;48.776;9.128;2023-11-21T01:40:14;9.80;99.90
10312;DHT22;5201;48.776;9.128;2023-11-21T01:42:41;9.80;99.90
10312;DHT22;5201;48.776;9.128;2023-11-21T01:45:09;9.80;99.90
10312;DHT22;5201;48.776;9.128;2023-11-21T01:47:35;9.80;99.90
10312;DHT22;5201;48.776;9.128;2023-11-21T01:50:02;9.70;99.90
10312;DHT22;5201;48.776;9.128;2023-11-21T01:52:30;9.60;99.90
10312;DHT22;5201;48.776;9.128;2023-11-21T01:54:56;9.70;99.90
10312;DHT22;5201;48.776;9.128;2023-11-21T01:57:23;9.80;99.90
10312;DHT22;5201;48.776;9.128;2023-11-21T01:59:49;9.80;99.90
10312;DHT22;5201;48.776;9.128;2023-11-21T02:02:15;9.90;99.90
10312;DHT22;5201;48.776;9.128;2023-11-21T02:04:41;9.80;99.90
10312;DHT22;5201;48.776;9.128;2023-11-21T02:07:06;9.80;99.90
10312;DHT22;5201;48.776;9.128;2023-11-21T02:09:32;9.80;99.90
10312;DHT22;5201;48.776;9.128;2023-11-21T02:11:59;9.70;99.90
10312;DHT22;5201;48.776;9.128;2023-11-21T02:14:26;9.40;99.90
10312;DHT22;5201;48.776;9.128;2023-11-21T02:16:54;9.30;99.90
10312;DHT22;5201;48.776;9.128;2023-11-21T02:19:21;9.20;99.90
10312;DHT22;5201;48.776;9.128;2023-11-21T02:21:54;9.20;99.90
10312;DHT22;5201;48.776;9.128;2023-11-21T02:24:22;9.20;99.90
10312;DHT22;5201;48.776;9.128;2023-11-21T02:26:48;9.30;99.90
10312;DHT22;5201;48.776;9.128;2023-11-21T02:29:17;9.30;99.90
10312;DHT22;5201;48.776;9.128;2023-11-21T02:31:44;9.50;99.90
10312;DHT22;5201;48.776;9.128;2023-11-21T02:34:17;9.60;99.90
10312;DHT22;5201;48.776;9.128;2023-11-21T02:36:46;9.70;99.90
10312;DHT22;5201;48.776;9.128;2023-11-21T02:39:12;9.80;99.90
10312;DHT22;5201;48.776;9.128;2023-11-21T02:41:38;9.80;99.90
10312;DHT22;5201;48.776;9.128;2023-11-21T02:44:05;12.00;99.90
10312;DHT22;5201;48.776;9.128;2023-11-21T02:46:35;9.70;99.90
10312;DHT22;5201;48.776;9.128;2023-11-21T02:49:02;9.90;99.90
10312;DHT22;5201;48.776;9.128;2023-11-21T02:51:28;9.80;99.90
10312;DHT22;5201;48.776;9.128;2023-11-21T02:53:53;9.80;99.90
10312;DHT22;5201;48.776;9.128;2023-11-21T02:56:19;10.20;99.90
10312;DHT22;5201;48.776;9.128;2023-11-21T02:58:45;9.80;99.90
10312;DHT22;5201;48.776;9.128;2023-11-21T03:01:11;9.70;99.90
10312;DHT22;5201;48.776;9.128;2023-11-21T03:03:38;9.60;99.90
10312;DHT22;5201;48.776;9.128;2023-11-21T03:06:06;9.40;99.90
10312;DHT22;5201;48.776;9.128;2023-11-21T03:08:31;9.50;99.90
10312;DHT22;5201;48.776;9.128;2023-11-21T03:10:57;9.40;99.90
10312;DHT22;5201;48.776;9.128;2023-11-21T03:13:23;9.50;99.90
10312;DHT22;5201;48.776;9.128;2023-11-21T03:15:49;9.50;99.90
10312;DHT22;5201;48.776;9.128;2023-11-21T03:18:15;9.50;99.90
10312;DHT22;5201;48.776;9.128;2023-11-21T03:20:41;9.80;99.90
10312;DHT22;5201;48.776;9.128;2023-11-21T03:23:07;9.40;99.90
10312;DHT22;5201;48.776;9.128;2023-11-21T03:25:32;9.40;99.90
10312;DHT22;5201;48.776;9.128;2023-11-21T03:27:58;9.50;99.90
10312;DHT22;5201;48.776;9.128;2023-11-21T03:30:24;9.50;99.90
10312;DHT22;5201;48.776;9.128;2023-11-21T03:32:49;9.30;99.90
10312;DHT22;5201;48.776;9.128;2023-11-21T03:35:15;9.40;99.90
10312;DHT22;5201;48.776;9.128;2023-11-21T03:37:40;9.30;99.90
10312;DHT22;5201;48.776;9.128;2023-11-21T03:40:07;9.20;99.90
10312;DHT22;5201;48.776;9.128;2023-11-21T03:42:38;9.20;99.90
10312;DHT22;5201;48.776;9.128;2023-11-21T03:45:04;9.30;99.90
10312;DHT22;5201;48.776;9.128;2023-11-21T03:47:30;9.30;99.90
10312;DHT22;5201;48.776;9.128;2023-11-21T03:49:55;9.50;99.90
10312;DHT22;5201;48.776;9.128;2023-11-21T03:52:21;9.50;99.90
10312;DHT22;5201;48.776;9.128;2023-11-21T03:54:46;9.60;99.90
10312;DHT22;5201;48.776;9.128;2023-11-21T03:57:12;9.60;99.90
10312;DHT22;5201;48.776;9.128;2023-11-21T03:59:42;9.70;99.90
10312;DHT22;5201;48.776;9.128;2023-11-21T04:02:08;9.80;99.90
10312;DHT22;5201;48.776;9.128;2023-11-21T04:04:34;9.60;99.90
10312;DHT22;5201;48.776;9.128;2023-11-21T04:07:00;9.50;99.90
10312;DHT22;5201;48.776;9.128;2023-11-21T04:09:25;9.50;99.90
10312;DHT22;5201;48.776;9.128;2023-11-21T04:11:52;9.40;99.90
10312;DHT22;5201;48.776;9.128;2023-11-21T04:14:18;9.40;99.90
10312;DHT22;5201;48.776;9.128;2023-11-21T04:16:43;9.20;99.90
10312;DHT22;5201;48.776;9.128;2023-11-21T04:19:09;9.10;99.90
10312;DHT22;5201;48.776;9.128;2023-11-21T04:21:36;9.10;99.90
10312;DHT22;5201;48.776;9.128;2023-11-21T04:24:02;9.10;99.90
10312;DHT22;5201;48.776;9.128;2023-11-21T04:26:27;9.10;99.90
10312;DHT22;5201;48.776;9.128;2023-11-21T04:28:53;9.20;99.90
10312;DHT22;5201;48.776;9.128;2023-11-21T04:31:19;9.10;99.90
10312;DHT22;5201;48.776;9.128;2023-11-21T04:33:44;9.00;99.90
10312;DHT22;5201;48.776;9.128;2023-11-21T04:36:10;9.10;99.90
10312;DHT22;5201;48.776;9.128;2023-11-21T04:38:36;9.10;99.90
10312;DHT22;5201;48.776;9.128;2023-11-21T04:41:02;9.10;99.90
10312;DHT22;5201;48.776;9.128;2023-11-21T04:43:27;9.20;99.90
10312;DHT22;5201;48.776;9.128;2023-11-21T04:45:54;9.20;99.90
10312;DHT22;5201;48.776;9.128;2023-11-21T04:48:19;9.20;99.90
10312;DHT22;5201;48.776;9.128;2023-11-21T04:50:45;9.30;99.90
10312;DHT22;5201;48.776;9.128;2023-11-21T04:53:11;9.20;99.90
10312;DHT22;5201;48.776;9.128;2023-11-21T04:55:39;9.30;99.90
10312;DHT22;5201;48.776;9.128;2023-11-21T04:58:05;9.20;99.90
10312;DHT22;5201;48.776;9.128;2023-11-21T05:00:30;9.20;99.90
10312;DHT22;5201;48.776;9.128;2023-11-21T05:02:56;9.30;99.90
10312;DHT22;5201;48.776;9.128;2023-11-21T05:05:21;9.20;99.90
10312;DHT22;5201;48.776;9.128;2023-11-21T05:07:47;9.30;99.90
10312;DHT22;5201;48.776;9.128;2023-11-21T05:10:14;9.30;99.90
10312;DHT22;5201;48.776;9.128;2023-11-21T05:12:41;9.30;99.90
10312;DHT22;5201;48.776;9.128;2023-11-21T05:15:08;9.40;99.90
10312;DHT22;5201;48.776;9.128;2023-11-21T05:17:40;9.50;99.90
10312;DHT22;5201;48.776;9.128;2023-11-21T05:20:10;9.50;99.90
10312;DHT22;5201;48.776;9.128;2023-11-21T05:22:36;9.50;99.90
10312;DHT22;5201;48.776;9.128;2023-11-21T05:25:03;9.60;99.90
10312;DHT22;5201;48.776;9.128;2023-11-21T05:27:29;9.60;99.90
10312;DHT22;5201;48.776;9.128;2023-11-21T05:29:56;9.60;99.90
10312;DHT22;5201;48.776;9.128;2023-11-21T05:32:23;9.60;99.90
10312;DHT22;5201;48.776;9.128;2023-11-21T05:34:49;9.60;99.90
10312;DHT22;5201;48.776;9.128;2023-11-21T05:37:14;10.50;99.90
10312;DHT22;5201;48.776;9.128;2023-11-21T05:39:40;9.70;99.90
10312;DHT22;5201;48.776;9.128;2023-11-21T05:42:06;9.70;99.90
10312;DHT22;5201;48.776;9.128;2023-11-21T05:44:31;9.70;99.90
10312;DHT22;5201;48.776;9.128;2023-11-21T05:46:57;9.70;99.90
10312;DHT22;5201;48.776;9.128;2023-11-21T05:49:24;9.70;99.90
10312;DHT22;5201;48.776;9.128;2023-11-21T05:51:55;9.70;99.90
10312;DHT22;5201;48.776;9.128;2023-11-21T05:54:21;9.70;99.90
10312;DHT22;5201;48.776;9.128;2023-11-21T05:56:47;9.70;99.90
10312;DHT22;5201;48.776;9.128;2023-11-21T05:59:13;9.70;99.90
10312;DHT22;5201;48.776;9.128;2023-11-21T06:01:38;9.70;99.90
10312;DHT22;5201;48.776;9.128;2023-11-21T06:04:05;9.70;99.90
10312;DHT22;5201;48.776;9.128;2023-11-21T06:06:30;9.70;99.90
10312;DHT22;5201;48.776;9.128;2023-11-21T06:08:57;9.70;99.90
10312;DHT22;5201;48.776;9.128;2023-11-21T06:11:22;9.60;99.90
10312;DHT22;5201;48.776;9.128;2023-11-21T06:13:49;9.60;99.90
10312;DHT22;5201;48.776;9.128;2023-11-21T06:16:15;10.10;99.90
10312;DHT22;5201;48.776;9.128;2023-11-21T06:18:44;9.60;99.90
10312;DHT22;5201;48.776;9.128;2023-11-21T06:21:10;9.60;99.90
10312;DHT22;5201;48.776;9.128;2023-11-21T06:23:36;9.60;99.90
10312;DHT22;5201;48.776;9.128;2023-11-21T06:26:01;9.60;99.90
10312;DHT22;5201;48.776;9.128;2023-11-21T06:28:27;9.60;99.90
10312;DHT22;5201;48.776;9.128;2023-11-21T06:30:52;9.60;99.90
10312;DHT22;5201;48.776;9.128;2023-11-21T06:33:18;9.70;99.90
10312;DHT22;5201;48.776;9.128;2023-11-21T06:35:44;9.70;99.90
10312;DHT22;5201;48.776;9.128;2023-11-21T06:38:10;9.70;99.90
10312;DHT22;5201;48.776;9.128;2023-11-21T06:40:36;9.70;99.90
10312;DHT22;5201;48.776;9.128;2023-11-21T06:43:02;9.70;99.90
10312;DHT22;5201;48.776;9.128;2023-11-21T06:45:27;9.70;99.90
10312;DHT22;5201;48.776;9.128;2023-11-21T06:47:53;9.80;99.90
10312;DHT22;5201;48.776;9.128;2023-11-21T06:50:19;9.70;99.90
10312;DHT22;5201;48.776;9.128;2023-11-21T06:52:44;9.60;99.90
10312;DHT22;5201;48.776;9.128;2023-11-21T06:55:10;10.00;99.90
10312;DHT22;5201;48.776;9.128;2023-11-21T06:57:36;9.70;99.90
10312;DHT22;5201;48.776;9.128;2023-11-21T07:00:02;10.00;99.90
10312;DHT22;5201;48.776;9.128;2023-11-21T07:02:28;9.80;99.90
10312;DHT22;5201;48.776;9.128;2023-11-21T07:04:54;9.80;99.90
10312;DHT22;5201;48.776;9.128;2023-11-21T07:07:19;9.80;99.90
10312;DHT22;5201;48.776;9.128;2023-11-21T07:09:45;9.80;99.90
10312;DHT22;5201;48.776;9.128;2023-11-21T07:12:11;9.80;99.90
10312;DHT22;5201;48.776;9.128;2023-11-21T07:14:37;9.90;99.90
10312;DHT22;5201;48.776;9.128;2023-11-21T07:17:04;9.80;99.90
10312;DHT22;5201;48.776;9.128;2023-11-21T07:19:30;9.80;99.90
10312;DHT22;5201;48.776;9.128;2023-11-21T07:21:56;10.20;99.90
10312;DHT22;5201;48.776;9.128;2023-11-21T07:24:21;9.80;99.90
10312;DHT22;5201;48.776;9.128;2023-11-21T07:26:48;9.60;99.90
10312;DHT22;5201;48.776;9.128;2023-11-21T07:29:14;9.80;99.90
10312;DHT22;5201;48.776;9.128;2023-11-21T07:31:40;9.20;99.90
10312;DHT22;5201;48.776;9.128;2023-11-21T07:34:06;9.10;99.90
10312;DHT22;5201;48.776;9.128;2023-11-21T07:36:33;9.20;99.90
10312;DHT22;5201;48.776;9.128;2023-11-21T07:38:59;9.10;99.90
10312;DHT22;5201;48.776;9.128;2023-11-21T07:41:24;9.00;99.90
10312;DHT22;5201;48.776;9.128;2023-11-21T07:43:50;9.10;99.90
10312;DHT22;5201;48.776;9.128;2023-11-21T07:46:15;9.20;99.90
10312;DHT22;5201;48.776;9.128;2023-11-21T07:48:42;9.20;99.90
10312;DHT22;5201;48.776;9.128;2023-11-21T07:51:08;9.20;99.90
10312;DHT22;5201;48.776;9.128;2023-11-21T07:53:35;9.20;99.90
10312;DHT22;5201;48.776;9.128;2023-11-21T07:56:05;9.30;99.90
10312;DHT22;5201;48.776;9.128;2023-11-21T07:58:31;9.30;99.90
10312;DHT22;5201;48.776;9.128;2023-11-21T08:01:01;9.20;99.90
10312;DHT22;5201;48.776;9.128;2023-11-21T08:03:27;9.30;99.90
10312;DHT22;5201;48.776;9.128;2023-11-21T08:05:54;9.30;99.90
10312;DHT22;5201;48.776;9.128;2023-11-21T08:08:20;9.50;99.90
10312;DHT22;5201;48.776;9.128;2023-11-21T08:10:46;9.50;99.90
10312;DHT22;5201;48.776;9.128;2023-11-21T08:13:25;9.50;99.90
10312;DHT22;5201;48.776;9.128;2023-11-21T08:15:53;9.50;99.90
10312;DHT22;5201;48.776;9.128;2023-11-21T08:18:19;9.60;99.90
10312;DHT22;5201;48.776;9.128;2023-11-21T08:20:44;10.50;99.90
10312;DHT22;5201;48.776;9.128;2023-11-21T08:23:16;9.60;99.90
10312;DHT22;5201;48.776;9.128;2023-11-21T08:25:46;9.70;99.90
10312;DHT22;5201;48.776;9.128;2023-11-21T08:28:12;9.70;99.90
10312;DHT22;5201;48.776;9.128;2023-11-21T08:30:39;9.70;99.90
10312;DHT22;5201;48.776;9.128;2023-11-21T08:33:07;9.80;99.90
10312;DHT22;5201;48.776;9.128;2023-11-21T08:35:33;11.20;99.90
10312;DHT22;5201;48.776;9.128;2023-11-21T08:37:59;10.00;99.90
10312;DHT22;5201;48.776;9.128;2023-11-21T08:40:25;10.10;99.90
10312;DHT22;5201;48.776;9.128;2023-11-21T08:42:51;10.20;99.90
10312;DHT22;5201;48.776;9.128;2023-11-21T08:45:20;10.20;99.90
10312;DHT22;5201;48.776;9.128;2023-11-21T08:47:47;10.90;99.90
10312;DHT22;5201;48.776;9.128;2023-11-21T08:50:15;10.30;99.90
10312;DHT22;5201;48.776;9.128;2023-11-21T08:52:41;10.10;99.90
10312;DHT22;5201;48.776;9.128;2023-11-21T08:55:10;10.20;99.90
10312;DHT22;5201;48.776;9.128;2023-11-21T08:57:38;10.60;99.90
10312;DHT22;5201;48.776;9.128;2023-11-21T09:00:05;10.50;99.90
10312;DHT22;5201;48.776;9.128;2023-11-21T09:02:34;10.60;99.90
10312;DHT22;5201;48.776;9.128;2023-11-21T09:05:00;11.00;99.90
10312;DHT22;5201;48.776;9.128;2023-11-21T09:07:29;10.90;99.90
10312;DHT22;5201;48.776;9.128;2023-11-21T09:09:54;11.50;99.90
10312;DHT22;5201;48.776;9.128;2023-11-21T09:12:20;10.80;99.90
10312;DHT22;5201;48.776;9.128;2023-11-21T09:14:46;10.80;99.90
10312;DHT22;5201;48.776;9.128;2023-11-21T09:17:12;10.90;99.90
10312;DHT22;5201;48.776;9.128;2023-11-21T09:19:38;10.90;99.90
10312;DHT22;5201;48.776;9.128;2023-11-21T09:22:04;10.80;99.90
10312;DHT22;5201;48.776;9.128;2023-11-21T09:24:33;10.90;99.90
10312;DHT22;5201;48.776;9.128;2023-11-21T09:26:59;11.00;99.90
10312;DHT22;5201;48.776;9.128;2023-11-21T09:29:26;11.00;99.90
10312;DHT22;5201;48.776;9.128;2023-11-21T09:31:51;11.00;99.90
10312;DHT22;5201;48.776;9.128;2023-11-21T09:34:17;11.00;99.90
10312;DHT22;5201;48.776;9.128;2023-11-21T09:36:47;11.00;99.90
10312;DHT22;5201;48.776;9.128;2023-11-21T09:39:13;11.00;99.90
10312;DHT22;5201;48.776;9.128;2023-11-21T09:41:49;10.90;99.90
10312;DHT22;5201;48.776;9.128;2023-11-21T09:44:18;11.00;99.90
10312;DHT22;5201;48.776;9.128;2023-11-21T09:46:47;11.00;99.90
10312;DHT22;5201;48.776;9.128;2023-11-21T09:49:15;11.00;99.90
10312;DHT22;5201;48.776;9.128;2023-11-21T09:51:47;11.50;99.90
10312;DHT22;5201;48.776;9.128;2023-11-21T09:54:15;11.00;99.90
10312;DHT22;5201;48.776;9.128;2023-11-21T09:56:43;11.30;99.90
10312;DHT22;5201;48.776;9.128;2023-11-21T09:59:13;10.90;99.90
10312;DHT22;5201;48.776;9.128;2023-11-21T10:01:42;10.90;99.90
10312;DHT22;5201;48.776;9.128;2023-11-21T10:04:08;11.20;99.90
10312;DHT22;5201;48.776;9.128;2023-11-21T10:06:39;10.90;99.90
10312;DHT22;5201;48.776;9.128;2023-11-21T10:09:10;11.00;99.90
10312;DHT22;5201;48.776;9.128;2023-11-21T10:11:42;11.50;99.90
10312;DHT22;5201;48.776;9.128;2023-11-21T10:14:12;11.00;99.90
10312;DHT22;5201;48.776;9.128;2023-11-21T10:16:40;11.00;99.90
10312;DHT22;5201;48.776;9.128;2023-11-21T10:19:07;11.00;99.90
10312;DHT22;5201;48.776;9.128;2023-11-21T10:21:33;11.00;99.90
10312;DHT22;5201;48.776;9.128;2023-11-21T10:23:59;11.40;99.90
10312;DHT22;5201;48.776;9.128;2023-11-21T10:26:26;11.00;99.90
10312;DHT22;5201;48.776;9.128;2023-11-21T10:28:57;11.00;99.90
10312;DHT22;5201;48.776;9.128;2023-11-21T10:31:23;11.00;99.90
10312;DHT22;5201;48.776;9.128;2023-11-21T10:33:52;11.00;99.90
10312;DHT22;5201;48.776;9.128;2023-11-21T10:36:27;10.90;99.90
10312;DHT22;5201;48.776;9.128;2023-11-21T10:38:53;10.90;99.90
10312;DHT22;5201;48.776;9.128;2023-11-21T10:41:22;10.80;99.90
10312;DHT22;5201;48.776;9.128;2023-11-21T10:43:48;10.80;99.90
10312;DHT22;5201;48.776;9.128;2023-11-21T10:46:14;10.80;99.90
10312;DHT22;5201;48.776;9.128;2023-11-21T10:48:43;10.80;99.90
10312;DHT22;5201;48.776;9.128;2023-11-21T10:51:09;11.00;99.90
10312;DHT22;5201;48.776;9.128;2023-11-21T10:53:41;10.90;99.90
10312;DHT22;5201;48.776;9.128;2023-11-21T10:56:14;10.90;99.90
10312;DHT22;5201;48.776;9.128;2023-11-21T10:58:43;10.90;99.90
10312;DHT22;5201;48.776;9.128;2023-11-21T11:01:09;10.90;99.90
10312;DHT22;5201;48.776;9.128;2023-11-21T11:03:39;11.40;99.90
10312;DHT22;5201;48.776;9.128;2023-11-21T11:06:07;11.00;99.90
10312;DHT22;5201;48.776;9.128;2023-11-21T11:08:37;11.00;99.90
10312;DHT22;5201;48.776;9.128;2023-11-21T11:11:07;11.00;99.90
10312;DHT22;5201;48.776;9.128;2023-11-21T11:13:33;11.00;99.90
10312;DHT22;5201;48.776;9.128;2023-11-21T11:16:00;11.00;99.90
10312;DHT22;5201;48.776;9.128;2023-11-21T11:18:29;10.90;99.90
10312;DHT22;5201;48.776;9.128;2023-11-21T11:21:12;11.30;99.90
10312;DHT22;5201;48.776;9.128;2023-11-21T11:27:16;11.00;99.90
10312;DHT22;5201;48.776;9.128;2023-11-21T11:35:10;11.00;99.90
10312;DHT22;5201;48.776;9.128;2023-11-21T11:37:42;10.90;99.90
10312;DHT22;5201;48.776;9.128;2023-11-21T11:40:08;12.30;99.90
10312;DHT22;5201;48.776;9.128;2023-11-21T11:42:36;11.00;99.90
10312;DHT22;5201;48.776;9.128;2023-11-21T11:45:02;11.00;99.90
10312;DHT22;5201;48.776;9.128;2023-11-21T11:47:31;11.00;99.90
10312;DHT22;5201;48.776;9.128;2023-11-21T11:50:07;11.00;99.90
10312;DHT22;5201;48.776;9.128;2023-11-21T11:52:41;11.20;99.90
10312;DHT22;5201;48.776;9.128;2023-11-21T11:55:09;11.30;99.90
10312;DHT22;5201;48.776;9.128;2023-11-21T11:57:36;11.40;99.90
10312;DHT22;5201;48.776;9.128;2023-11-21T12:00:18;11.30;99.90
10312;DHT22;5201;48.776;9.128;2023-11-21T12:02:47;11.30;99.90
10312;DHT22;5201;48.776;9.128;2023-11-21T12:05:15;11.30;99.90
10312;DHT22;5201;48.776;9.128;2023-11-21T12:10:20;11.10;99.90
10312;DHT22;5201;48.776;9.128;2023-11-21T12:12:47;11.00;99.90
10312;DHT22;5201;48.776;9.128;2023-11-21T12:15:13;11.30;99.90
10312;DHT22;5201;48.776;9.128;2023-11-21T12:17:43;11.00;99.90
10312;DHT22;5201;48.776;9.128;2023-11-21T12:20:09;11.00;99.90
10312;DHT22;5201;48.776;9.128;2023-11-21T12:22:58;11.10;99.90
10312;DHT22;5201;48.776;9.128;2023-11-21T12:25:29;11.30;99.90
10312;DHT22;5201;48.776;9.128;2023-11-21T12:27:57;11.10;99.90
10312;DHT22;5201;48.776;9.128;2023-11-21T12:30:25;11.00;99.90
10312;DHT22;5201;48.776;9.128;2023-11-21T12:32:54;11.00;99.90
10312;DHT22;5201;48.776;9.128;2023-11-21T12:35:23;10.70;99.90
10312;DHT22;5201;48.776;9.128;2023-11-21T12:37:49;10.60;99.90
10312;DHT22;5201;48.776;9.128;2023-11-21T12:40:16;10.70;99.90
10312;DHT22;5201;48.776;9.128;2023-11-21T12:42:46;10.60;99.90
10312;DHT22;5201;48.776;9.128;2023-11-21T12:47:47;10.90;99.90
10312;DHT22;5201;48.776;9.128;2023-11-21T12:50:14;10.80;99.90
10312;DHT22;5201;48.776;9.128;2023-11-21T12:52:44;10.80;99.90
10312;DHT22;5201;48.776;9.128;2023-11-21T12:55:17;10.70;99.90
10312;DHT22;5201;48.776;9.128;2023-11-21T12:57:45;10.60;99.90
10312;DHT22;5201;48.776;9.128;2023-11-21T13:00:12;10.60;99.90
10312;DHT22;5201;48.776;9.128;2023-11-21T13:02:50;10.70;99.90
10312;DHT22;5201;48.776;9.128;2023-11-21T13:05:27;10.70;99.90
10312;DHT22;5201;48.776;9.128;2023-11-21T13:07:56;11.20;99.90
10312;DHT22;5201;48.776;9.128;2023-11-21T13:10:24;10.80;99.90
10312;DHT22;5201;48.776;9.128;2023-11-21T13:12:59;10.90;99.90
10312;DHT22;5201;48.776;9.128;2023-11-21T13:15:27;11.00;99.90
10312;DHT22;5201;48.776;9.128;2023-11-21T13:17:53;11.00;99.90
10312;DHT22;5201;48.776;9.128;2023-11-21T13:20:19;11.00;99.90
10312;DHT22;5201;48.776;9.128;2023-11-21T13:22:49;10.80;99.90
10312;DHT22;5201;48.776;9.128;2023-11-21T13:25:17;10.90;99.90
10312;DHT22;5201;48.776;9.128;2023-11-21T13:27:45;10.50;99.90
10312;DHT22;5201;48.776;9.128;2023-11-21T13:30:15;10.20;99.90
10312;DHT22;5201;48.776;9.128;2023-11-21T13:32:44;9.10;99.90
10312;DHT22;5201;48.776;9.128;2023-11-21T13:35:16;9.60;99.90
10312;DHT22;5201;48.776;9.128;2023-11-21T13:37:57;9.60;99.90
10312;DHT22;5201;48.776;9.128;2023-11-21T13:40:26;9.70;99.90
10312;DHT22;5201;48.776;9.128;2023-11-21T13:42:55;9.70;99.90
10312;DHT22;5201;48.776;9.128;2023-11-21T13:45:27;9.70;99.90
10312;DHT22;5201;48.776;9.128;2023-11-21T13:47:54;9.90;99.90
10312;DHT22;5201;48.776;9.128;2023-11-21T13:50:25;9.70;99.90
10312;DHT22;5201;48.776;9.128;2023-11-21T13:52:55;9.80;99.90
10312;DHT22;5201;48.776;9.128;2023-11-21T13:55:21;9.70;99.90
10312;DHT22;5201;48.776;9.128;2023-11-21T13:57:50;9.80;99.90
10312;DHT22;5201;48.776;9.128;2023-11-21T14:00:18;9.80;99.90
10312;DHT22;5201;48.776;9.128;2023-11-21T14:03:07;9.90;99.90
10312;DHT22;5201;48.776;9.128;2023-11-21T14:05:41;9.80;99.90
10312;DHT22;5201;48.776;9.128;2023-11-21T14:08:08;9.80;99.90
10312;DHT22;5201;48.776;9.128;2023-11-21T14:10:37;9.90;99.90
10312;DHT22;5201;48.776;9.128;2023-11-21T14:13:08;9.80;99.90
10312;DHT22;5201;48.776;9.128;2023-11-21T14:15:36;9.80;99.90
10312;DHT22;5201;48.776;9.128;2023-11-21T14:18:07;9.70;99.90
10312;DHT22;5201;48.776;9.128;2023-11-21T14:20:36;9.70;99.90
10312;DHT22;5201;48.776;9.128;2023-11-21T14:23:03;9.80;99.90
10312;DHT22;5201;48.776;9.128;2023-11-21T14:25:29;9.70;99.90
10312;DHT22;5201;48.776;9.128;2023-11-21T14:27:55;9.60;99.90
10312;DHT22;5201;48.776;9.128;2023-11-21T14:30:22;9.60;99.90
10312;DHT22;5201;48.776;9.128;2023-11-21T14:32:48;9.50;99.90
10312;DHT22;5201;48.776;9.128;2023-11-21T14:35:15;9.50;99.90
10312;DHT22;5201;48.776;9.128;2023-11-21T14:37:41;9.50;99.90
10312;DHT22;5201;48.776;9.128;2023-11-21T14:40:07;9.40;99.90
10312;DHT22;5201;48.776;9.128;2023-11-21T14:42:34;9.40;99.90
10312;DHT22;5201;48.776;9.128;2023-11-21T14:45:03;9.40;99.90
10312;DHT22;5201;48.776;9.128;2023-11-21T14:47:31;9.50;99.90
10312;DHT22;5201;48.776;9.128;2023-11-21T14:49:57;9.50;99.90
10312;DHT22;5201;48.776;9.128;2023-11-21T14:52:25;10.10;99.90
10312;DHT22;5201;48.776;9.128;2023-11-21T14:55:05;9.60;99.90
10312;DHT22;5201;48.776;9.128;2023-11-21T14:57:46;9.50;99.90
10312;DHT22;5201;48.776;9.128;2023-11-21T15:00:19;9.50;99.90
10312;DHT22;5201;48.776;9.128;2023-11-21T15:03:00;9.50;99.90
10312;DHT22;5201;48.776;9.128;2023-11-21T15:05:27;9.60;99.90
10312;DHT22;5201;48.776;9.128;2023-11-21T15:07:56;9.60;99.90
10312;DHT22;5201;48.776;9.128;2023-11-21T15:10:34;9.50;99.90
10312;DHT22;5201;48.776;9.128;2023-11-21T15:13:13;9.60;99.90
10312;DHT22;5201;48.776;9.128;2023-11-21T15:15:41;9.90;99.90
10312;DHT22;5201;48.776;9.128;2023-11-21T15:18:06;9.70;99.90
10312;DHT22;5201;48.776;9.128;2023-11-21T15:20:33;9.80;99.90
10312;DHT22;5201;48.776;9.128;2023-11-21T15:22:58;9.80;99.90
10312;DHT22;5201;48.776;9.128;2023-11-21T15:25:25;9.90;99.90
10312;DHT22;5201;48.776;9.128;2023-11-21T15:27:51;9.70;99.90
10312;DHT22;5201;48.776;9.128;2023-11-21T15:30:16;9.50;99.90
10312;DHT22;5201;48.776;9.128;2023-11-21T15:32:48;9.60;99.90
10312;DHT22;5201;48.776;9.128;2023-11-21T15:35:14;9.50;99.90
10312;DHT22;5201;48.776;9.128;2023-11-21T15:37:40;9.50;99.90
10312;DHT22;5201;48.776;9.128;2023-11-21T15:40:06;9.40;99.90
10312;DHT22;5201;48.776;9.128;2023-11-21T15:42:34;9.20;99.90
10312;DHT22;5201;48.776;9.128;2023-11-21T15:45:01;9.20;99.90
10312;DHT22;5201;48.776;9.128;2023-11-21T15:47:27;9.20;99.90
10312;DHT22;5201;48.776;9.128;2023-11-21T15:49:52;9.20;99.90
10312;DHT22;5201;48.776;9.128;2023-11-21T15:52:18;9.30;99.90
10312;DHT22;5201;48.776;9.128;2023-11-21T15:54:44;9.40;99.90
10312;DHT22;5201;48.776;9.128;2023-11-21T15:57:11;9.60;99.90
10312;DHT22;5201;48.776;9.128;2023-11-21T15:59:40;9.50;99.90
10312;DHT22;5201;48.776;9.128;2023-11-21T16:02:07;9.50;99.90
10312;DHT22;5201;48.776;9.128;2023-11-21T16:04:33;9.60;99.90
10312;DHT22;5201;48.776;9.128;2023-11-21T16:07:01;9.60;99.90
10312;DHT22;5201;48.776;9.128;2023-11-21T16:09:27;9.50;99.90
10312;DHT22;5201;48.776;9.128;2023-11-21T16:12:00;9.40;99.90